This is the latest recevied weather packets stored in our database for station/object W4UWO. If no packets are shown the sender has not sent any weather packets the latest 10 day(s).
| Time | Temp. | Humidity | Pressure | Rain* | Wind** | Luminosity | Snow |
|---|---|---|---|---|---|---|---|
| 1787844749 | 28.33° C | 64% | 1017.6 hPa | 0 mm | - | 662 W/m² | - |
| 1787844448 | 28.89° C | 64% | 1017.5 hPa | 0 mm | - | 673 W/m² | - |
| 1787844144 | 29.44° C | 62% | 1017.6 hPa | 0 mm | - | 654 W/m² | - |
| 1787843844 | 27.78° C | 64% | 1017.6 hPa | 0 mm | - | 645 W/m² | - |
| 1787843538 | 27.22° C | 68% | 1017.5 hPa | 0 mm | - | 631 W/m² | - |
| 1787843235 | 27.78° C | 66% | 1017.4 hPa | 0 mm | - | 620 W/m² | - |
| 1787842936 | 27.22° C | 68% | 1017.1 hPa | 0 mm | - | 615 W/m² | - |
| 1787842635 | 26.67° C | 69% | 1017 hPa | 0 mm | - | 595 W/m² | - |
| 1787842331 | 26.67° C | 69% | 1017.1 hPa | 0 mm | - | 496 W/m² | - |
| 1787842030 | 26.67° C | 69% | 1017.1 hPa | 0 mm | - | 451 W/m² | - |
| 1787841727 | 26.67° C | 70% | 1016.8 hPa | 0 mm | - | 544 W/m² | - |
| 1787841427 | 26.11° C | 71% | 1017.1 hPa | 0 mm | - | 517 W/m² | - |
| 1787841121 | 26.11° C | 71% | 1017.1 hPa | 0 mm | - | 340 W/m² | - |
| 1787840816 | 26.11° C | 71% | 1017 hPa | 0 mm | - | 400 W/m² | - |
| 1787840511 | 26.11° C | 71% | 1016.9 hPa | 0 mm | - | 501 W/m² | - |
| 1787840207 | 25.56° C | 72% | 1017.2 hPa | 0 mm | - | 499 W/m² | - |
| 1787839906 | 25.56° C | 72% | 1017.1 hPa | 0 mm | - | 372 W/m² | - |
| 1787839602 | 25° C | 75% | 1016.8 hPa | 0 mm | - | 328 W/m² | - |
| 1787839302 | 25° C | 75% | 1016.9 hPa | 0 mm | - | 420 W/m² | - |
| 1787839001 | 24.44° C | 78% | 1016.8 hPa | 0 mm | - | 401 W/m² | - |
| 1787838700 | 25° C | 75% | 1017.1 hPa | 0 mm | - | 259 W/m² | - |
| 1787838399 | 25° C | 77% | 1017.1 hPa | 0 mm | - | 304 W/m² | - |
| 1787838099 | 24.44° C | 78% | 1016.9 hPa | 0 mm | - | 270 W/m² | - |
| 1787837799 | 24.44° C | 78% | 1017 hPa | 0 mm | - | 281 W/m² | - |
| 1787837494 | 24.44° C | 78% | 1017 hPa | 0 mm | - | 149 W/m² | - |
* Rain latest hour (hover to see other rain measurements)
** Current wind speed in m/s (hover to see current wind gust speed)